createdAt,value
2016-08-25T00:00:50.026Z,0
2016-08-25T00:01:50.691Z,0
2016-08-25T00:02:50.662Z,0
2016-08-25T00:03:49.236Z,0
2016-08-25T00:04:49.208Z,0
2016-08-25T00:05:49.173Z,0
2016-08-25T00:06:50.527Z,0
2016-08-25T00:07:50.518Z,0
2016-08-25T00:08:49.779Z,0
2016-08-25T00:09:49.052Z,0
2016-08-25T00:10:50.421Z,0
2016-08-25T00:11:50.386Z,0
2016-08-25T00:12:50.354Z,0
2016-08-25T00:13:48.243Z,0
2016-08-25T00:14:48.893Z,0
2016-08-25T00:15:50.258Z,0
2016-08-25T00:16:48.832Z,0
2016-08-25T00:17:48.103Z,0
2016-08-25T00:18:49.480Z,0
2016-08-25T00:19:50.137Z,0
2016-08-25T00:20:48.713Z,0
2016-08-25T00:21:49.397Z,0
2016-08-25T00:22:49.342Z,0
2016-08-25T00:23:49.317Z,0
2016-08-25T00:24:49.980Z,0
2016-08-25T00:25:48.558Z,0
2016-08-25T00:26:48.543Z,0
2016-08-25T00:27:49.189Z,0
2016-08-25T00:28:48.461Z,0
2016-08-25T00:29:49.131Z,0
2016-08-25T00:30:49.100Z,0
2016-08-25T00:31:49.765Z,0
2016-08-25T00:32:49.733Z,0
2016-08-25T00:33:49.701Z,0
2016-08-25T00:34:49.674Z,0
2016-08-25T00:35:48.261Z,0
2016-08-25T00:36:48.910Z,0
2016-08-25T00:37:48.889Z,0
2016-08-25T00:38:48.150Z,0
2016-08-25T00:39:48.123Z,0
2016-08-25T00:40:48.088Z,0
2016-08-25T00:41:48.765Z,0
2016-08-25T00:42:49.434Z,0
2016-08-25T00:43:48.692Z,0
2016-08-25T00:44:48.672Z,0
2016-08-25T00:45:48.633Z,0
2016-08-25T00:46:46.514Z,0
2016-08-25T00:47:49.262Z,0
2016-08-25T00:48:48.543Z,0
2016-08-25T00:49:47.811Z,0
2016-08-25T00:50:49.178Z,0
2016-08-25T00:51:49.151Z,0
2016-08-25T00:52:48.411Z,0
2016-08-25T00:53:48.392Z,0
2016-08-25T00:54:47.654Z,0
2016-08-25T00:55:48.324Z,0
2016-08-25T00:56:48.292Z,0
2016-08-25T00:57:47.555Z,0
2016-08-25T00:58:48.216Z,0
2016-08-25T00:59:48.191Z,0
2016-08-25T01:00:48.857Z,0
2016-08-25T01:01:48.138Z,0
2016-08-25T01:02:48.105Z,0
2016-08-25T01:03:48.073Z,0
2016-08-25T01:04:47.337Z,0
2016-08-25T01:05:48.708Z,0
2016-08-25T01:06:47.967Z,0
2016-08-25T01:07:47.243Z,0
2016-08-25T01:08:48.608Z,0
2016-08-25T01:09:47.875Z,0
2016-08-25T01:10:47.148Z,0
2016-08-25T01:11:47.115Z,0
2016-08-25T01:12:48.484Z,0
2016-08-25T01:13:47.760Z,0
2016-08-25T01:14:47.716Z,0
2016-08-25T01:15:48.393Z,0
2016-08-25T01:16:46.953Z,0
2016-08-25T01:17:47.621Z,0
2016-08-25T01:18:46.892Z,0
2016-08-25T01:19:48.252Z,0
2016-08-25T01:20:48.229Z,0
2016-08-25T01:21:47.498Z,0
2016-08-25T01:22:47.465Z,0
2016-08-25T01:23:47.434Z,0
2016-08-25T01:24:48.100Z,0
2016-08-25T01:25:45.985Z,0
2016-08-25T01:26:48.044Z,0
2016-08-25T01:27:48.016Z,0
2016-08-25T01:28:47.276Z,0
2016-08-25T01:29:47.246Z,0
2016-08-25T01:30:46.519Z,0
2016-08-25T01:31:47.890Z,0
2016-08-25T01:32:46.464Z,0
2016-08-25T01:33:46.420Z,0
2016-08-25T01:34:46.389Z,0
2016-08-25T01:35:47.748Z,0
2016-08-25T01:36:47.039Z,0
2016-08-25T01:37:46.295Z,0
2016-08-25T01:38:46.949Z,0
2016-08-25T01:39:46.234Z,0
2016-08-25T01:40:47.590Z,0
2016-08-25T01:41:46.863Z,0
2016-08-25T01:42:47.528Z,0
2016-08-25T01:43:47.500Z,0
2016-08-25T01:44:47.474Z,0
2016-08-25T01:45:46.733Z,0
2016-08-25T01:46:46.705Z,0
2016-08-25T01:47:44.587Z,0
2016-08-25T01:48:46.640Z,0
2016-08-25T01:49:45.213Z,0
2016-08-25T01:50:47.277Z,0
2016-08-25T01:51:46.545Z,0
2016-08-25T01:52:46.509Z,0
2016-08-25T01:53:47.181Z,0
2016-08-25T01:54:47.145Z,0
2016-08-25T01:55:47.113Z,0
2016-08-25T01:56:47.082Z,0
2016-08-25T01:57:46.353Z,0
2016-08-25T01:58:46.334Z,0
2016-08-25T01:59:46.989Z,0
2016-08-25T02:00:46.257Z,0
2016-08-25T02:01:46.232Z,0
2016-08-25T02:02:46.188Z,0
2016-08-25T02:03:45.464Z,0
2016-08-25T02:04:46.824Z,0
2016-08-25T02:05:46.803Z,0
2016-08-25T02:06:46.770Z,0
2016-08-25T02:07:46.044Z,0
2016-08-25T02:08:46.695Z,0
2016-08-25T02:09:45.970Z,0
2016-08-25T02:10:45.948Z,0
2016-08-25T02:11:45.206Z,0
2016-08-25T02:12:46.570Z,0
2016-08-25T02:13:45.838Z,0
2016-08-25T02:14:45.812Z,0
2016-08-25T02:15:45.780Z,0
2016-08-25T02:16:46.446Z,0
2016-08-25T02:17:45.719Z,0
2016-08-25T02:18:44.984Z,0
2016-08-25T02:19:44.951Z,0
2016-08-25T02:20:46.319Z,0
2016-08-25T02:21:45.591Z,0
2016-08-25T02:22:45.562Z,0
2016-08-25T02:23:46.218Z,0
2016-08-25T02:24:46.188Z,0
2016-08-25T02:25:45.462Z,0
2016-08-25T02:26:45.426Z,0
2016-08-25T02:27:44.693Z,0
2016-08-25T02:28:45.372Z,0
2016-08-25T02:29:45.331Z,0
2016-08-25T02:30:45.304Z,0
2016-08-25T02:31:45.258Z,0
2016-08-25T02:32:45.227Z,0
2016-08-25T02:33:44.512Z,0
2016-08-25T02:34:45.169Z,0
2016-08-25T02:35:45.151Z,0
2016-08-25T02:36:45.795Z,0
2016-08-25T02:37:45.768Z,0
2016-08-25T02:38:43.642Z,0
2016-08-25T02:39:45.002Z,0
2016-08-25T02:40:44.972Z,0
2016-08-25T02:41:44.942Z,0
2016-08-25T02:42:44.909Z,0
2016-08-25T02:43:44.181Z,0
2016-08-25T02:44:44.143Z,0
2016-08-25T02:45:44.128Z,0
2016-08-25T02:46:44.778Z,0
2016-08-25T02:47:44.055Z,0
2016-08-25T02:48:44.720Z,0
2016-08-25T02:49:44.679Z,0
2016-08-25T02:50:45.345Z,0
2016-08-25T02:51:45.316Z,0
2016-08-25T02:52:45.278Z,0
2016-08-25T02:53:45.252Z,0
2016-08-25T02:54:45.217Z,0
2016-08-25T02:55:45.185Z,0
2016-08-25T02:56:43.770Z,0
2016-08-25T02:57:45.126Z,0
2016-08-25T02:58:45.094Z,0
2016-08-25T02:59:44.357Z,0
2016-08-25T03:00:43.625Z,0
2016-08-25T03:01:44.320Z,0
2016-08-25T03:02:44.261Z,0
2016-08-25T03:03:44.925Z,0
2016-08-25T03:04:44.191Z,0
2016-08-25T03:05:44.861Z,0
2016-08-25T03:06:44.822Z,0
2016-08-25T03:07:44.096Z,0
2016-08-25T03:08:44.073Z,0
2016-08-25T03:09:41.942Z,0
2016-08-25T03:10:43.303Z,0
2016-08-25T03:11:44.667Z,0
2016-08-25T03:12:43.250Z,0
2016-08-25T03:13:43.224Z,0
2016-08-25T03:14:44.574Z,0
2016-08-25T03:15:44.541Z,0
2016-08-25T03:16:43.127Z,0
2016-08-25T03:17:43.770Z,0
2016-08-25T03:18:43.758Z,0
2016-08-25T03:19:44.412Z,0
2016-08-25T03:20:44.372Z,0
2016-08-25T03:21:43.642Z,0
2016-08-25T03:22:43.613Z,0
2016-08-25T03:23:44.279Z,0
2016-08-25T03:24:43.543Z,0
2016-08-25T03:25:42.819Z,0
2016-08-25T03:26:44.173Z,0
2016-08-25T03:27:44.148Z,0
2016-08-25T03:28:42.717Z,0
2016-08-25T03:29:43.383Z,0
2016-08-25T03:30:44.058Z,0
2016-08-25T03:31:43.318Z,0
2016-08-25T03:32:43.288Z,0
2016-08-25T03:33:41.870Z,0
2016-08-25T03:34:43.911Z,0
2016-08-25T03:35:43.186Z,0
2016-08-25T03:36:43.156Z,0
2016-08-25T03:37:43.817Z,0
2016-08-25T03:38:43.095Z,0
2016-08-25T03:39:43.757Z,0
2016-08-25T03:40:43.031Z,0
2016-08-25T03:41:42.305Z,0
2016-08-25T03:42:42.961Z,0
2016-08-25T03:43:42.934Z,0
2016-08-25T03:44:41.501Z,0
2016-08-25T03:45:42.873Z,0
2016-08-25T03:46:43.525Z,0
2016-08-25T03:47:42.101Z,0
2016-08-25T03:48:43.467Z,0
2016-08-25T03:49:42.739Z,0
2016-08-25T03:50:43.405Z,0
2016-08-25T03:51:41.974Z,0
2016-08-25T03:52:41.945Z,0
2016-08-25T03:53:41.215Z,0
2016-08-25T03:54:41.872Z,0
2016-08-25T03:55:42.532Z,0
2016-08-25T03:56:42.516Z,0
2016-08-25T03:57:42.472Z,0
2016-08-25T03:58:41.041Z,0
2016-08-25T03:59:41.710Z,0
2016-08-25T04:00:42.370Z,0
2016-08-25T04:01:40.944Z,0
2016-08-25T04:02:41.610Z,0
2016-08-25T04:03:42.274Z,0
2016-08-25T04:04:42.928Z,0
2016-08-25T04:05:42.216Z,0
2016-08-25T04:06:42.173Z,0
2016-08-25T04:07:41.444Z,0
2016-08-25T04:08:42.830Z,0
2016-08-25T04:09:42.085Z,0
2016-08-25T04:10:41.344Z,0
2016-08-25T04:11:42.019Z,0
2016-08-25T04:12:41.982Z,0
2016-08-25T04:13:41.247Z,0
2016-08-25T04:14:41.926Z,0
2016-08-25T04:15:41.183Z,0
2016-08-25T04:16:41.149Z,0
2016-08-25T04:17:41.126Z,0
2016-08-25T04:18:41.790Z,0
2016-08-25T04:19:41.748Z,0
2016-08-25T04:20:40.328Z,0
2016-08-25T04:21:42.383Z,0
2016-08-25T04:22:40.955Z,0
2016-08-25T04:23:41.619Z,5
2016-08-25T04:24:41.590Z,5
2016-08-25T04:25:41.552Z,5
2016-08-25T04:26:39.437Z,5
2016-08-25T04:27:42.196Z,5
2016-08-25T04:28:41.452Z,5
2016-08-25T04:29:41.421Z,5
2016-08-25T04:30:41.383Z,5
2016-08-25T04:31:41.359Z,10
2016-08-25T04:32:40.620Z,10
2016-08-25T04:33:41.992Z,10
2016-08-25T04:34:41.967Z,10
2016-08-25T04:35:39.827Z,10
2016-08-25T04:36:41.191Z,15
2016-08-25T04:37:41.159Z,15
2016-08-25T04:38:41.145Z,15
2016-08-25T04:39:40.396Z,15
2016-08-25T04:40:40.365Z,20
2016-08-25T04:41:41.026Z,20
2016-08-25T04:42:40.993Z,20
2016-08-25T04:43:40.955Z,25
2016-08-25T04:44:40.926Z,25
2016-08-25T04:45:41.591Z,25
2016-08-25T04:46:41.554Z,30
2016-08-25T04:47:41.516Z,30
2016-08-25T04:48:41.499Z,35
2016-08-25T04:49:40.762Z,35
2016-08-25T04:50:40.035Z,40
2016-08-25T04:51:41.397Z,40
2016-08-25T04:52:41.359Z,45
2016-08-25T04:53:39.938Z,45
2016-08-25T04:54:41.293Z,45
2016-08-25T04:55:39.877Z,50
2016-08-25T04:56:40.533Z,50
2016-08-25T04:57:41.188Z,50
2016-08-25T04:58:40.462Z,55
2016-08-25T04:59:41.132Z,55
2016-08-25T05:00:41.105Z,55
2016-08-25T05:01:39.697Z,60
2016-08-25T05:02:39.639Z,60
2016-08-25T05:03:39.617Z,60
2016-08-25T05:04:40.267Z,65
2016-08-25T05:05:40.239Z,70
2016-08-25T05:06:40.200Z,70
2016-08-25T05:07:40.175Z,75
2016-08-25T05:08:40.833Z,85
2016-08-25T05:09:40.812Z,95
2016-08-25T05:10:40.074Z,115
2016-08-25T05:11:40.049Z,140
2016-08-25T05:12:40.012Z,200
2016-08-25T05:13:38.590Z,265
2016-08-25T05:14:39.945Z,280
2016-08-25T05:15:39.924Z,295
2016-08-25T05:16:39.885Z,300
2016-08-25T05:17:39.846Z,310
2016-08-25T05:18:39.125Z,315
2016-08-25T05:19:39.783Z,325
2016-08-25T05:20:38.360Z,330
2016-08-25T05:21:39.032Z,340
2016-08-25T05:22:40.385Z,350
2016-08-25T05:23:38.273Z,365
2016-08-25T05:24:39.632Z,390
2016-08-25T05:25:40.292Z,405
2016-08-25T05:26:40.264Z,415
2016-08-25T05:27:40.235Z,430
2016-08-25T05:28:38.110Z,430
2016-08-25T05:29:39.477Z,450
2016-08-25T05:30:38.759Z,455
2016-08-25T05:31:39.429Z,450
2016-08-25T05:32:40.102Z,455
2016-08-25T05:33:39.361Z,470
2016-08-25T05:34:40.022Z,490
2016-08-25T05:35:40.014Z,500
2016-08-25T05:36:39.986Z,515
2016-08-25T05:37:39.939Z,525
2016-08-25T05:38:39.215Z,530
2016-08-25T05:39:38.488Z,550
2016-08-25T05:40:39.159Z,570
2016-08-25T05:41:39.147Z,575
2016-08-25T05:42:39.114Z,585
2016-08-25T05:43:39.779Z,610
2016-08-25T05:44:39.750Z,620
2016-08-25T05:45:39.025Z,625
2016-08-25T05:46:38.997Z,630
2016-08-25T05:47:39.675Z,635
2016-08-25T05:48:38.252Z,645
2016-08-25T05:49:39.625Z,645
2016-08-25T05:50:39.592Z,655
2016-08-25T05:51:38.171Z,660
2016-08-25T05:52:38.844Z,680
2016-08-25T05:53:39.531Z,690
2016-08-25T05:54:39.486Z,705
2016-08-25T05:55:39.476Z,720
2016-08-25T05:56:38.740Z,730
2016-08-25T05:57:39.420Z,740
2016-08-25T05:58:37.297Z,750
2016-08-25T05:59:38.664Z,760
2016-08-25T06:00:38.651Z,765
2016-08-25T06:01:38.617Z,765
2016-08-25T06:02:38.590Z,780
2016-08-25T06:03:39.268Z,785
2016-08-25T06:04:39.242Z,790
2016-08-25T06:05:37.847Z,795
2016-08-25T06:06:39.198Z,815
2016-08-25T06:07:39.173Z,825
2016-08-25T06:08:38.451Z,840
2016-08-25T06:09:38.426Z,845
2016-08-25T06:10:38.402Z,845
2016-08-25T06:11:39.088Z,855
2016-08-25T06:12:39.052Z,855
2016-08-25T06:13:38.335Z,865
2016-08-25T06:14:38.320Z,865
2016-08-25T06:15:36.895Z,875
2016-08-25T06:16:38.273Z,870
2016-08-25T06:17:38.941Z,870
2016-08-25T06:18:38.918Z,875
2016-08-25T06:19:38.200Z,875
2016-08-25T06:20:38.875Z,870
2016-08-25T06:21:38.850Z,865
2016-08-25T06:22:38.131Z,875
2016-08-25T06:23:38.807Z,870
2016-08-25T06:24:38.086Z,870
2016-08-25T06:25:38.070Z,865
2016-08-25T06:26:38.736Z,875
2016-08-25T06:27:37.327Z,870
2016-08-25T06:28:38.695Z,875
2016-08-25T06:29:37.978Z,885
2016-08-25T06:30:37.266Z,900
2016-08-25T06:31:37.247Z,895
2016-08-25T06:32:37.914Z,910
2016-08-25T06:33:38.593Z,925
2016-08-25T06:34:37.869Z,955
2016-08-25T06:35:38.548Z,1000
2016-08-25T06:36:37.831Z,1020
2016-08-25T06:37:38.503Z,1020
2016-08-25T06:38:37.101Z,1025
2016-08-25T06:39:38.462Z,1060
2016-08-25T06:40:37.743Z,1075
2016-08-25T06:41:38.428Z,1085
2016-08-25T06:42:38.405Z,1100
2016-08-25T06:43:37.704Z,1120
2016-08-25T06:44:37.686Z,1160
2016-08-25T06:45:37.638Z,1165
2016-08-25T06:46:36.931Z,1165
2016-08-25T06:47:38.309Z,1165
2016-08-25T06:48:38.280Z,1175
2016-08-25T06:49:38.273Z,1180
2016-08-25T06:50:38.249Z,1190
2016-08-25T06:51:38.236Z,1200
2016-08-25T06:52:36.133Z,1205
2016-08-25T06:53:36.794Z,1215
2016-08-25T06:54:37.471Z,1220
2016-08-25T06:55:38.143Z,1235
2016-08-25T06:56:38.126Z,1255
2016-08-25T06:57:38.104Z,1280
2016-08-25T06:58:37.385Z,1285
2016-08-25T06:59:38.072Z,1300
2016-08-25T07:00:38.058Z,1290
2016-08-25T07:01:37.341Z,1315
2016-08-25T07:02:38.011Z,1330
2016-08-25T07:03:37.990Z,1340
2016-08-25T07:04:37.965Z,1350
2016-08-25T07:05:37.260Z,1365
2016-08-25T07:06:37.927Z,1385
2016-08-25T07:07:37.225Z,1385
2016-08-25T07:08:37.197Z,1400
2016-08-25T07:09:37.873Z,1410
2016-08-25T07:10:36.473Z,1410
2016-08-25T07:11:37.141Z,1420
2016-08-25T07:12:37.813Z,1445
2016-08-25T07:13:37.798Z,1455
2016-08-25T07:14:37.086Z,1450
2016-08-25T07:15:37.067Z,1450
2016-08-25T07:16:37.041Z,1465
2016-08-25T07:17:37.035Z,1465
2016-08-25T07:18:37.010Z,1495
2016-08-25T07:19:36.985Z,1495
2016-08-25T07:20:36.970Z,1495
2016-08-25T07:21:36.952Z,1470
2016-08-25T07:22:37.629Z,1350
2016-08-25T07:23:36.918Z,1205
2016-08-25T07:24:36.903Z,1135
2016-08-25T07:25:36.887Z,1115
2016-08-25T07:26:37.560Z,1115
2016-08-25T07:27:37.546Z,1110
2016-08-25T07:28:36.833Z,1105
2016-08-25T07:29:37.512Z,1115
2016-08-25T07:30:36.797Z,1110
2016-08-25T07:31:36.767Z,1115
2016-08-25T07:32:37.462Z,1120
2016-08-25T07:33:36.739Z,1135
2016-08-25T07:34:36.717Z,1130
2016-08-25T07:35:37.417Z,1135
2016-08-25T07:36:36.684Z,1135
2016-08-25T07:37:37.376Z,1155
2016-08-25T07:38:35.956Z,1190
2016-08-25T07:39:36.635Z,1335
2016-08-25T07:40:36.622Z,1530
2016-08-25T07:41:37.294Z,1600
2016-08-25T07:42:35.888Z,1635
2016-08-25T07:43:35.878Z,1640
2016-08-25T07:44:36.542Z,1655
2016-08-25T07:45:35.833Z,1680
2016-08-25T07:46:37.219Z,1720
2016-08-25T07:47:36.491Z,1705
2016-08-25T07:48:35.810Z,1765
2016-08-25T07:49:36.461Z,1810
2016-08-25T07:50:36.445Z,1880
2016-08-25T07:51:36.426Z,1920
2016-08-25T07:52:36.412Z,1920
2016-08-25T07:53:36.390Z,1925
2016-08-25T07:54:36.377Z,1880
2016-08-25T07:55:37.054Z,1890
2016-08-25T07:56:35.645Z,1930
2016-08-25T07:57:35.647Z,1955
2016-08-25T07:58:34.922Z,1975
2016-08-25T07:59:36.286Z,2000
2016-08-25T08:00:36.974Z,2020
2016-08-25T08:01:36.966Z,2020
2016-08-25T08:02:35.545Z,2000
2016-08-25T08:03:36.220Z,2030
2016-08-25T08:04:36.900Z,2070
2016-08-25T08:05:36.189Z,1990
2016-08-25T08:06:36.877Z,2030
2016-08-25T08:07:36.863Z,2020
2016-08-25T08:08:36.839Z,2025
2016-08-25T08:09:35.430Z,2115
2016-08-25T08:10:36.825Z,2190
2016-08-25T08:11:36.799Z,2220
2016-08-25T08:12:36.782Z,2145
2016-08-25T08:13:36.070Z,2050
2016-08-25T08:14:36.055Z,2055
2016-08-25T08:15:36.750Z,2085
2016-08-25T08:16:36.735Z,2105
2016-08-25T08:17:36.711Z,2165
2016-08-25T08:18:36.691Z,2205
2016-08-25T08:19:35.285Z,2220
2016-08-25T08:20:35.967Z,2160
2016-08-25T08:21:35.246Z,2135
2016-08-25T08:22:36.628Z,2110
2016-08-25T08:23:35.915Z,2140
2016-08-25T08:24:34.503Z,2190
2016-08-25T08:25:36.587Z,2195
2016-08-25T08:26:35.878Z,2205
2016-08-25T08:27:35.159Z,2180
2016-08-25T08:28:36.550Z,2210
2016-08-25T08:29:35.832Z,2225
2016-08-25T08:30:35.818Z,2170
2016-08-25T08:31:35.799Z,2090
2016-08-25T08:32:35.789Z,2160
2016-08-25T08:33:36.478Z,2240
2016-08-25T08:34:35.754Z,2260
2016-08-25T08:35:36.443Z,2265
2016-08-25T08:36:35.733Z,2220
2016-08-25T08:37:35.026Z,2230
2016-08-25T08:38:36.399Z,2285
2016-08-25T08:39:35.682Z,2315
2016-08-25T08:40:35.671Z,2280
2016-08-25T08:41:36.357Z,2285
2016-08-25T08:42:36.341Z,2255
2016-08-25T08:43:36.326Z,2185
2016-08-25T08:44:36.328Z,2270
2016-08-25T08:45:36.301Z,2385
2016-08-25T08:46:34.900Z,2420
2016-08-25T08:47:34.885Z,2310
2016-08-25T08:48:35.579Z,2225
2016-08-25T08:49:35.550Z,2355
2016-08-25T08:50:36.240Z,2345
2016-08-25T08:51:36.236Z,2295
2016-08-25T08:52:34.816Z,2365
2016-08-25T08:53:36.206Z,2425
2016-08-25T08:54:34.791Z,2425
2016-08-25T08:55:36.185Z,2375
2016-08-25T08:56:36.161Z,2440
2016-08-25T08:57:36.149Z,2460
2016-08-25T08:58:34.043Z,2395
2016-08-25T08:59:35.423Z,2385
2016-08-25T09:00:34.711Z,2430
2016-08-25T09:01:34.006Z,2395
2016-08-25T09:02:35.381Z,2390
2016-08-25T09:03:35.373Z,2475
2016-08-25T09:04:34.666Z,2425
2016-08-25T09:05:34.644Z,2360
2016-08-25T09:06:34.629Z,2490
2016-08-25T09:07:36.011Z,2485
2016-08-25T09:08:35.300Z,2460
2016-08-25T09:09:35.287Z,2425
2016-08-25T09:10:34.585Z,2415
2016-08-25T09:11:35.981Z,2470
2016-08-25T09:12:35.249Z,2510
2016-08-25T09:13:35.934Z,2465
2016-08-25T09:14:35.227Z,2350
2016-08-25T09:15:35.211Z,2490
2016-08-25T09:16:34.506Z,2450
2016-08-25T09:17:34.504Z,2365
2016-08-25T09:18:34.481Z,2510
2016-08-25T09:19:35.854Z,2565
2016-08-25T09:20:35.935Z,2535
2016-08-25T09:21:34.454Z,2510
2016-08-25T09:22:35.131Z,2525
2016-08-25T09:23:35.826Z,2525
2016-08-25T09:24:35.812Z,2605
2016-08-25T09:25:35.787Z,2530
2016-08-25T09:26:35.774Z,2555
2016-08-25T09:27:34.391Z,2580
2016-08-25T09:28:35.756Z,2755
2016-08-25T09:29:35.055Z,2745
2016-08-25T09:30:35.045Z,2720
2016-08-25T09:31:35.729Z,2750
2016-08-25T09:32:35.013Z,2775
2016-08-25T09:33:34.304Z,2780
2016-08-25T09:34:34.996Z,2830
2016-08-25T09:35:35.677Z,2735
2016-08-25T09:36:34.266Z,2815
2016-08-25T09:37:34.268Z,2855
2016-08-25T09:38:34.951Z,2885
2016-08-25T09:39:35.649Z,2880
2016-08-25T09:40:34.951Z,2810
2016-08-25T09:41:34.924Z,2790
2016-08-25T09:42:34.896Z,2780
2016-08-25T09:43:35.585Z,2780
2016-08-25T09:44:34.878Z,2735
2016-08-25T09:45:34.872Z,2825
2016-08-25T09:46:34.154Z,2755
2016-08-25T09:47:34.848Z,2775
2016-08-25T09:48:34.833Z,2680
2016-08-25T09:49:34.136Z,2670
2016-08-25T09:50:34.830Z,2735
2016-08-25T09:51:34.103Z,2795
2016-08-25T09:52:35.508Z,2760
2016-08-25T09:53:35.476Z,2765
2016-08-25T09:54:35.470Z,2810
2016-08-25T09:55:34.082Z,2705
2016-08-25T09:56:35.446Z,2690
2016-08-25T09:57:34.044Z,2735
2016-08-25T09:58:34.726Z,3005
2016-08-25T09:59:35.413Z,3150
2016-08-25T10:00:34.008Z,3060
2016-08-25T10:01:34.698Z,2575
2016-08-25T10:02:33.993Z,1765
2016-08-25T10:03:33.988Z,1500
2016-08-25T10:04:34.678Z,1500
2016-08-25T10:05:34.659Z,1455
2016-08-25T10:06:35.346Z,1460
2016-08-25T10:07:34.642Z,1485
2016-08-25T10:08:34.619Z,1455
2016-08-25T10:09:34.612Z,1455
2016-08-25T10:10:34.601Z,1480
2016-08-25T10:11:34.609Z,1460
2016-08-25T10:12:35.281Z,1450
2016-08-25T10:13:35.269Z,1465
2016-08-25T10:14:34.568Z,1485
2016-08-25T10:15:35.260Z,1375
2016-08-25T10:16:34.542Z,1235
2016-08-25T10:17:34.538Z,1245
2016-08-25T10:18:34.539Z,1255
2016-08-25T10:19:34.513Z,1250
2016-08-25T10:20:35.203Z,1295
2016-08-25T10:21:35.413Z,1295
2016-08-25T10:22:35.187Z,1165
2016-08-25T10:23:35.170Z,1280
2016-08-25T10:24:35.160Z,2225
2016-08-25T10:25:34.456Z,2865
2016-08-25T10:26:34.444Z,2940
2016-08-25T10:27:35.131Z,2765
2016-08-25T10:28:34.427Z,2615
2016-08-25T10:29:35.112Z,2695
2016-08-25T10:30:34.406Z,2815
2016-08-25T10:31:34.399Z,3050
2016-08-25T10:32:35.082Z,3235
2016-08-25T10:33:35.071Z,3165
2016-08-25T10:34:33.673Z,3110
2016-08-25T10:35:34.353Z,3055
2016-08-25T10:36:35.043Z,2905
2016-08-25T10:37:34.350Z,2775
2016-08-25T10:38:35.024Z,2770
2016-08-25T10:39:35.005Z,2945
2016-08-25T10:40:34.303Z,3050
2016-08-25T10:41:34.312Z,3090
2016-08-25T10:42:34.998Z,3075
2016-08-25T10:43:34.971Z,2860
2016-08-25T10:44:34.262Z,2765
2016-08-25T10:45:34.250Z,2855
2016-08-25T10:46:33.552Z,2775
2016-08-25T10:47:34.233Z,2765
2016-08-25T10:48:34.926Z,2940
2016-08-25T10:49:33.520Z,3145
2016-08-25T10:50:34.893Z,3180
2016-08-25T10:51:34.880Z,3020
2016-08-25T10:52:34.173Z,2840
2016-08-25T10:53:33.458Z,2790
2016-08-25T10:54:34.851Z,2990
2016-08-25T10:55:33.443Z,2890
2016-08-25T10:56:33.422Z,1700
2016-08-25T10:57:34.112Z,1100
2016-08-25T10:58:34.799Z,1045
2016-08-25T10:59:34.778Z,1045
2016-08-25T11:00:34.066Z,1010
2016-08-25T11:01:34.755Z,910
2016-08-25T11:02:34.742Z,1055
2016-08-25T11:03:34.730Z,1310
2016-08-25T11:04:34.717Z,1145
2016-08-25T11:05:34.702Z,690
2016-08-25T11:06:34.693Z,565
2016-08-25T11:07:34.670Z,560
2016-08-25T11:08:33.967Z,570
2016-08-25T11:09:34.649Z,570
2016-08-25T11:10:33.938Z,585
2016-08-25T11:11:33.921Z,1190
2016-08-25T11:12:33.909Z,2315
2016-08-25T11:13:33.212Z,2525
2016-08-25T11:14:33.871Z,2580
2016-08-25T11:15:33.173Z,2530
2016-08-25T11:16:34.571Z,2580
2016-08-25T11:17:34.525Z,2550
2016-08-25T11:18:34.508Z,2620
2016-08-25T11:19:32.406Z,2480
2016-08-25T11:20:33.778Z,1350
2016-08-25T11:21:33.762Z,425
2016-08-25T11:22:33.059Z,380
2016-08-25T11:23:34.439Z,355
2016-08-25T11:24:33.724Z,345
2016-08-25T11:25:33.698Z,335
2016-08-25T11:26:33.688Z,320
2016-08-25T11:27:32.965Z,310
2016-08-25T11:28:32.960Z,305
2016-08-25T11:29:34.325Z,300
2016-08-25T11:30:34.299Z,295
2016-08-25T11:31:33.609Z,290
2016-08-25T11:32:34.265Z,275
2016-08-25T11:33:34.250Z,275
2016-08-25T11:34:32.845Z,260
2016-08-25T11:35:34.228Z,245
2016-08-25T11:36:33.498Z,235
2016-08-25T11:37:33.487Z,225
2016-08-25T11:38:33.461Z,215
2016-08-25T11:39:34.128Z,205
2016-08-25T11:40:33.419Z,200
2016-08-25T11:41:33.398Z,200
2016-08-25T11:42:34.086Z,195
2016-08-25T11:43:33.350Z,195
2016-08-25T11:44:33.332Z,195
2016-08-25T11:45:33.312Z,195
2016-08-25T11:46:31.898Z,195
2016-08-25T11:47:33.272Z,195
2016-08-25T11:48:33.256Z,195
2016-08-25T11:49:33.226Z,195
2016-08-25T11:50:33.213Z,195
2016-08-25T11:51:33.204Z,190
2016-08-25T11:52:33.858Z,190
2016-08-25T11:53:33.838Z,190
2016-08-25T11:54:32.421Z,190
2016-08-25T11:55:32.402Z,190
2016-08-25T11:56:32.370Z,185
2016-08-25T11:57:33.747Z,185
2016-08-25T11:58:33.722Z,185
2016-08-25T11:59:33.699Z,185
2016-08-25T12:00:32.985Z,185
2016-08-25T12:01:33.650Z,185
2016-08-25T12:02:32.937Z,185
2016-08-25T12:03:33.627Z,185
2016-08-25T12:04:31.516Z,185
2016-08-25T12:05:33.567Z,180
2016-08-25T12:06:32.853Z,180
2016-08-25T12:07:32.140Z,180
2016-08-25T12:08:32.805Z,180
2016-08-25T12:09:33.485Z,180
2016-08-25T12:10:32.769Z,180
2016-08-25T12:11:32.734Z,180
2016-08-25T12:12:32.724Z,180
2016-08-25T12:13:33.385Z,180
2016-08-25T12:14:33.375Z,180
2016-08-25T12:15:32.641Z,180
2016-08-25T12:16:32.614Z,175
2016-08-25T12:17:33.287Z,175
2016-08-25T12:18:32.565Z,175
2016-08-25T12:19:31.845Z,175
2016-08-25T12:20:31.820Z,175
2016-08-25T12:21:32.495Z,175
2016-08-25T12:22:32.475Z,175
2016-08-25T12:23:32.451Z,175
2016-08-25T12:24:33.118Z,175
2016-08-25T12:25:32.402Z,175
2016-08-25T12:26:33.078Z,175
2016-08-25T12:27:32.367Z,170
2016-08-25T12:28:32.341Z,170
2016-08-25T12:29:33.014Z,170
2016-08-25T12:30:31.583Z,170
2016-08-25T12:31:31.568Z,170
2016-08-25T12:32:32.245Z,170
2016-08-25T12:33:31.521Z,170
2016-08-25T12:34:32.890Z,170
2016-08-25T12:35:30.782Z,170
2016-08-25T12:36:32.850Z,165
2016-08-25T12:37:32.110Z,165
2016-08-25T12:38:32.792Z,165
2016-08-25T12:39:31.378Z,165
2016-08-25T12:40:32.738Z,165
2016-08-25T12:41:32.031Z,165
2016-08-25T12:42:31.306Z,165
2016-08-25T12:43:31.272Z,165
2016-08-25T12:44:32.652Z,165
2016-08-25T12:45:31.981Z,165
2016-08-25T12:46:32.602Z,165
2016-08-25T12:47:32.583Z,165
2016-08-25T12:48:31.160Z,165
2016-08-25T12:49:32.520Z,165
2016-08-25T12:50:31.810Z,160
2016-08-25T12:51:31.792Z,160
2016-08-25T12:52:31.758Z,160
2016-08-25T12:53:31.735Z,160
2016-08-25T12:54:31.718Z,160
2016-08-25T12:55:31.688Z,160
2016-08-25T12:56:31.656Z,160
2016-08-25T12:57:32.338Z,160
2016-08-25T12:58:30.920Z,155
2016-08-25T12:59:32.280Z,155
2016-08-25T13:00:31.564Z,155
2016-08-25T13:01:32.252Z,155
2016-08-25T13:02:32.219Z,155
2016-08-25T13:03:30.799Z,155
2016-08-25T13:04:32.164Z,155
2016-08-25T13:05:31.439Z,155
2016-08-25T13:06:32.140Z,155
2016-08-25T13:07:31.405Z,155
2016-08-25T13:08:29.970Z,155
2016-08-25T13:09:32.049Z,155
2016-08-25T13:10:31.319Z,150
2016-08-25T13:11:30.618Z,150
2016-08-25T13:12:31.977Z,150
2016-08-25T13:13:31.250Z,150
2016-08-25T13:14:30.537Z,150
2016-08-25T13:15:31.898Z,150
2016-08-25T13:16:31.183Z,150
2016-08-25T13:17:31.159Z,150
2016-08-25T13:18:31.834Z,150
2016-08-25T13:19:31.811Z,150
2016-08-25T13:20:31.794Z,150
2016-08-25T13:21:31.765Z,150
2016-08-25T13:22:31.044Z,145
2016-08-25T13:23:30.313Z,145
2016-08-25T13:24:30.984Z,145
2016-08-25T13:25:30.280Z,145
2016-08-25T13:26:30.941Z,145
2016-08-25T13:27:30.916Z,145
2016-08-25T13:28:31.588Z,145
2016-08-25T13:29:30.879Z,145
2016-08-25T13:30:31.536Z,145
2016-08-25T13:31:31.521Z,145
2016-08-25T13:32:31.485Z,140
2016-08-25T13:33:31.470Z,140
2016-08-25T13:34:31.444Z,140
2016-08-25T13:35:31.424Z,140
2016-08-25T13:36:30.695Z,140
2016-08-25T13:37:29.976Z,145
2016-08-25T13:38:30.657Z,140
2016-08-25T13:39:30.626Z,140
2016-08-25T13:40:30.604Z,140
2016-08-25T13:41:29.885Z,140
2016-08-25T13:42:30.557Z,140
2016-08-25T13:43:31.221Z,140
2016-08-25T13:44:30.503Z,135
2016-08-25T13:45:30.483Z,135
2016-08-25T13:46:30.455Z,135
2016-08-25T13:47:30.432Z,135
2016-08-25T13:48:29.710Z,140
2016-08-25T13:49:29.684Z,135
2016-08-25T13:50:31.057Z,135
2016-08-25T13:51:31.030Z,135
2016-08-25T13:52:31.004Z,135
2016-08-25T13:53:30.282Z,135
2016-08-25T13:54:30.265Z,140
2016-08-25T13:55:30.241Z,130
2016-08-25T13:56:30.906Z,130